nws-alerts: Checking more than four warning/county codes can delay the loading of your pages. You should use a cron job to get the data.
^^
Station Historical Data
 
Daily Summary for April 19, 2018 Units:  English    Metric   Both
« Previous Day
Next Day »
Daily Weekly Monthly Yearly Custom
  Current: High: Low: Average:
Temperature: 55.9 °F TemperatureF °F 54.0 °F 59.6 °F
Dew Point: 38.5 °F DewpointF °F 37.9 °F 49.4 °F
Humidity: 52% Humidity% 51% 69%
Wind Speed: 0.0mph WindSpeedMPHmph 0.0mph 0.7mph
Wind Gust: 13.0mph WindSpeedGustMPHmph - -
WindCalm - - SSW
Pressure: 30.06 in PressureIn in 29.88 in -
Precipitation: 0.00 in      
Historical Graphs
 
 
Tabular Data for April 19, 2018
Time Temperature Dew Point Pressure Wind Wind Speed Wind Gust Humidity Rainfall Rate (Hourly)
TemperatureF °F DewpointF °F PressureIn in Calm     Humidity% HourlyPrecipIn in
00:03 68.9 °F 55.4 °F 29.93 in Calm     62% 0.00 in
00:08 68.7 °F 55.6 °F 29.93 in Calm     63% 0.00 in
00:13 68.5 °F 55.4 °F 29.93 in Calm     63% 0.00 in
00:18 68.4 °F 55.8 °F 29.93 in Calm     64% 0.00 in
00:24 68.4 °F 55.8 °F 29.93 in Calm     64% 0.00 in
00:29 68.2 °F 55.6 °F 29.93 in Calm     64% 0.00 in
00:34 67.8 °F 55.6 °F 29.93 in Calm     65% 0.00 in
00:40 67.6 °F 55.9 °F 29.92 in Calm     66% 0.00 in
00:45 67.5 °F 55.8 °F 29.92 in Calm   1.0 mph 66% 0.00 in
00:50 67.1 °F 55.8 °F 29.92 in Calm     67% 0.00 in
00:56 66.9 °F 55.9 °F 29.93 in Calm     68% 0.00 in
01:01 66.9 °F 55.9 °F 29.93 in Calm     68% 0.00 in
01:07 66.9 °F 56.5 °F 29.93 in Calm   3.0 mph 69% 0.00 in
01:13 66.9 °F 56.8 °F 29.93 in Calm   2.0 mph 70% 0.00 in
01:18 66.9 °F 56.8 °F 29.93 in Calm   1.0 mph 70% 0.00 in
01:23 66.9 °F 57.2 °F 29.92 in Calm   4.0 mph 71% 0.00 in
01:28 66.9 °F 57.2 °F 29.93 in Calm   2.0 mph 71% 0.00 in
01:33 66.7 °F 57.4 °F 29.93 in Calm   8.0 mph 72% 0.00 in
01:39 66.6 °F 57.6 °F 29.92 in Calm     73% 0.00 in
01:45 66.4 °F 57.9 °F 29.92 in Calm   2.0 mph 74% 0.00 in
01:50 66.0 °F 57.9 °F 29.92 in Calm   5.0 mph 75% 0.00 in
01:55 65.8 °F 57.7 °F 29.92 in Calm   2.0 mph 75% 0.00 in
02:00 65.8 °F 57.7 °F 29.92 in Calm     75% 0.00 in
02:05 65.5 °F 57.4 °F 29.91 in Calm     75% 0.00 in
02:11 65.1 °F 57.4 °F 29.91 in Calm     76% 0.00 in
02:16 64.9 °F 57.6 °F 29.91 in Calm     77% 0.00 in
02:21 64.8 °F 57.4 °F 29.91 in Calm     77% 0.00 in
02:27 64.4 °F 57.4 °F 29.91 in Calm     78% 0.00 in
02:32 64.2 °F 57.6 °F 29.91 in Calm     79% 0.00 in
02:37 64.0 °F 57.4 °F 29.90 in Calm     79% 0.00 in
02:42 63.9 °F 57.2 °F 29.90 in Calm     79% 0.00 in
02:48 63.7 °F 57.4 °F 29.90 in NNE 2.0 mph 3.0 mph 80% 0.00 in
02:53 63.7 °F 57.4 °F 29.90 in Calm     80% 0.00 in
02:58 63.3 °F 57.0 °F 29.90 in Calm   1.0 mph 80% 0.00 in
03:04 63.3 °F 57.4 °F 29.90 in Calm   4.0 mph 81% 0.00 in
03:09 63.1 °F 57.2 °F 29.89 in Calm     81% 0.00 in
03:14 63.1 °F 57.2 °F 29.89 in Calm     81% 0.00 in
03:20 63.1 °F 57.2 °F 29.89 in Calm     81% 0.00 in
03:26 63.0 °F 57.4 °F 29.89 in Calm     82% 0.00 in
03:31 63.0 °F 57.4 °F 29.89 in Calm     82% 0.00 in
03:36 63.0 °F 57.4 °F 29.89 in Calm     82% 0.00 in
03:42 63.0 °F 57.4 °F 29.89 in ENE 0.9 mph 1.0 mph 82% 0.00 in
03:47 63.0 °F 57.4 °F 29.88 in Calm     82% 0.00 in
03:52 62.8 °F 57.2 °F 29.89 in Calm   1.0 mph 82% 0.00 in
03:58 62.8 °F 57.6 °F 29.89 in Calm     83% 0.00 in
04:03 62.4 °F 57.2 °F 29.89 in Calm     83% 0.00 in
04:09 62.1 °F 56.8 °F 29.89 in Calm     83% 0.00 in
04:14 62.1 °F 57.2 °F 29.89 in Calm     84% 0.00 in
04:20 61.9 °F 57.0 °F 29.89 in Calm   1.0 mph 84% 0.00 in
04:25 61.9 °F 57.4 °F 29.89 in Calm   1.0 mph 85% 0.00 in
04:31 61.7 °F 57.2 °F 29.89 in Calm   2.0 mph 85% 0.00 in
04:36 61.9 °F 57.4 °F 29.89 in Calm     85% 0.00 in
04:41 62.1 °F 57.2 °F 29.90 in Calm   3.0 mph 84% 0.00 in
04:46 62.1 °F 57.2 °F 29.90 in Calm     84% 0.00 in
04:51 62.1 °F 57.2 °F 29.90 in Calm   3.0 mph 84% 0.00 in
04:57 62.1 °F 57.2 °F 29.90 in Calm     84% 0.00 in
05:02 62.1 °F 57.2 °F 29.90 in Calm     84% 0.00 in
05:08 61.9 °F 56.7 °F 29.90 in Calm     83% 0.00 in
05:13 61.9 °F 56.7 °F 29.90 in Calm     83% 0.00 in
05:19 61.5 °F 55.6 °F 29.90 in Calm     81% 0.00 in
05:24 61.5 °F 55.6 °F 29.90 in Calm     81% 0.00 in
05:30 61.3 °F 54.9 °F 29.90 in Calm   2.0 mph 79% 0.00 in
05:35 61.2 °F 54.3 °F 29.90 in Calm   3.0 mph 78% 0.00 in
05:39 61.0 °F 52.7 °F 29.91 in WNW 2.9 mph 7.0 mph 74% 0.00 in
05:44 61.0 °F 52.0 °F 29.91 in ENE 2.9 mph 5.0 mph 72% 0.00 in
05:49 61.0 °F 52.0 °F 29.91 in North 0.9 mph 2.0 mph 72% 0.00 in
05:55 61.0 °F 50.7 °F 29.90 in Calm   2.0 mph 69% 0.00 in
06:00 60.6 °F 49.6 °F 29.91 in Calm   4.0 mph 67% 0.00 in
06:05 60.4 °F 49.5 °F 29.91 in West 2.9 mph 5.0 mph 67% 0.00 in
06:11 60.4 °F 49.8 °F 29.91 in NNE 4.9 mph 5.0 mph 68% 0.00 in
06:16 60.3 °F 49.6 °F 29.91 in Calm   3.0 mph 68% 0.00 in
06:22 59.7 °F 50.0 °F 29.91 in Calm     70% 0.00 in
06:27 59.5 °F 49.8 °F 29.92 in West 2.9 mph 4.0 mph 70% 0.00 in
06:32 59.2 °F 49.8 °F 29.92 in Calm   2.0 mph 71% 0.00 in
06:37 58.8 °F 49.8 °F 29.93 in Calm   3.0 mph 72% 0.00 in
06:43 58.5 °F 49.8 °F 29.93 in Calm   1.0 mph 73% 0.00 in
06:48 57.9 °F 49.3 °F 29.94 in Calm   3.0 mph 73% 0.00 in
06:54 57.6 °F 48.9 °F 29.94 in Calm   1.0 mph 73% 0.00 in
06:59 57.0 °F 48.0 °F 29.94 in NNW 0.9 mph 3.0 mph 72% 0.00 in
07:05 56.5 °F 47.5 °F 29.95 in Calm   6.0 mph 72% 0.00 in
07:10 55.9 °F 46.8 °F 29.95 in Calm   1.0 mph 71% 0.00 in
07:15 55.6 °F 46.4 °F 29.95 in Calm   4.0 mph 71% 0.00 in
07:20 55.0 °F 45.9 °F 29.96 in NNE 2.0 mph 7.0 mph 71% 0.00 in
07:25 54.9 °F 45.3 °F 29.96 in Calm   1.0 mph 70% 0.00 in
07:30 54.7 °F 44.8 °F 29.96 in Calm   2.0 mph 69% 0.00 in
07:36 54.3 °F 44.1 °F 29.97 in Calm   4.0 mph 68% 0.00 in
07:41 54.1 °F 43.9 °F 29.97 in Calm   3.0 mph 68% 0.00 in
07:46 54.1 °F 43.3 °F 29.97 in NW 4.0 mph 6.0 mph 67% 0.00 in
07:51 54.0 °F 43.3 °F 29.98 in WNW 2.0 mph 2.0 mph 67% 0.00 in
07:54 54.0 °F 43.7 °F 29.98 in NNW 0.9 mph 4.0 mph 68% 0.00 in
07:59 54.0 °F 43.3 °F 29.98 in Calm   1.0 mph 67% 0.00 in
08:04 54.0 °F 43.3 °F 29.98 in Calm   6.0 mph 67% 0.00 in
08:10 54.1 °F 43.9 °F 29.98 in Calm   2.0 mph 68% 0.00 in
08:15 54.1 °F 43.3 °F 29.99 in Calm   2.0 mph 67% 0.00 in
08:20 54.1 °F 43.0 °F 29.99 in NW 0.9 mph 4.0 mph 66% 0.00 in
08:25 54.3 °F 42.8 °F 29.99 in WNW 6.0 mph 6.0 mph 65% 0.00 in
08:30 54.1 °F 41.9 °F 30.00 in SW 0.9 mph 4.0 mph 63% 0.00 in
08:35 54.1 °F 41.0 °F 30.00 in WNW 0.9 mph 2.0 mph 61% 0.00 in
08:41 54.0 °F 39.9 °F 30.01 in Calm   5.0 mph 59% 0.00 in
08:46 54.0 °F 39.6 °F 30.01 in NW 2.0 mph 2.0 mph 58% 0.00 in
08:51 54.0 °F 39.6 °F 30.01 in Calm     58% 0.00 in
08:57 54.0 °F 39.6 °F 30.01 in Calm   5.0 mph 58% 0.00 in
09:02 54.0 °F 39.0 °F 30.01 in Calm   2.0 mph 57% 0.00 in
09:07 54.1 °F 39.7 °F 30.01 in Calm     58% 0.00 in
09:12 54.1 °F 39.7 °F 30.01 in West 0.9 mph 1.0 mph 58% 0.00 in
09:18 54.1 °F 38.8 °F 30.00 in East 0.9 mph 8.0 mph 56% 0.00 in
09:23 54.3 °F 39.4 °F 30.00 in Calm   5.0 mph 57% 0.00 in
09:29 54.5 °F 39.6 °F 30.00 in Calm   2.0 mph 57% 0.00 in
09:34 54.5 °F 38.7 °F 30.01 in NW 0.9 mph 5.0 mph 55% 0.00 in
09:39 54.5 °F 38.1 °F 30.01 in NNW 2.0 mph 9.0 mph 54% 0.00 in
09:44 54.5 °F 39.2 °F 30.01 in Calm     56% 0.00 in
09:49 54.7 °F 38.8 °F 30.02 in Calm   3.0 mph 55% 0.00 in
09:54 54.7 °F 37.9 °F 30.02 in WNW 4.0 mph 7.0 mph 53% 0.00 in
09:59 54.7 °F 38.3 °F 30.02 in West 2.0 mph 6.0 mph 54% 0.00 in
10:05 54.7 °F 37.9 °F 30.02 in North 2.0 mph 5.0 mph 53% 0.00 in
10:10 54.7 °F 38.3 °F 30.02 in WSW 0.9 mph 8.0 mph 54% 0.00 in
10:15 54.7 °F 38.3 °F 30.03 in NNW 2.9 mph 10.0 mph 54% 0.00 in
10:20 54.9 °F 38.5 °F 30.03 in Calm   6.0 mph 54% 0.00 in
10:26 55.0 °F 38.7 °F 30.03 in NNW 6.9 mph 10.0 mph 54% 0.00 in
10:31 55.2 °F 38.8 °F 30.03 in Calm   3.0 mph 54% 0.00 in
10:36 55.8 °F 39.4 °F 30.03 in NNW 0.9 mph 7.0 mph 54% 0.00 in
10:42 55.6 °F 38.7 °F 30.04 in Calm   7.0 mph 53% 0.00 in
10:47 55.9 °F 39.6 °F 30.04 in North 4.0 mph 4.0 mph 54% 0.00 in
10:52 55.8 °F 38.8 °F 30.05 in Calm   2.0 mph 53% 0.00 in
10:58 55.9 °F 39.6 °F 30.05 in North 2.9 mph 3.0 mph 54% 0.00 in
11:03 56.1 °F 39.2 °F 30.06 in ENE 6.0 mph 6.0 mph 53% 0.00 in
11:08 56.1 °F 38.3 °F 30.06 in WNW 8.9 mph 12.0 mph 51% 0.00 in
11:13 55.9 °F 39.0 °F 30.06 in WSW 0.9 mph 2.0 mph 53% 0.00 in
11:18 55.9 °F 38.5 °F 30.06 in Calm   13.0 mph 52% 0.00 in
Ellijay Weather
Compliments of Weather Underground - 1.75 mb